ROMMA est une association bénévole à but non lucratif. Votre soutien est indispensable : ADHERER à ROMMA ou FAIRE un DON

Granges-lès-Beaumont - (26, Drôme)

Drôme des Collines (155 m)   Longitude: 04°58'E   Latitude: 45°03'N Station partenaire n°123
 

Détail journalier du     <<     >>

Température Precipitation Humidité Pression Vent Dir Rafale Dir. rafale Ensol.
Heure (°C) (mm) (%) (hPa) (km/h) (km/h) (min)
01:00 2.409610226ENE13E0
02:00 3.409210227ENE15ENE0
03:00 3.809110226ENE18E0
04:00 3.709310216E15E0
05:00 4.109210212NE10E0
06:00 3.909210212ENE13E0
07:00 3.2092102103ONO0
08:00 2.7094102206NNO0
09:00 3.4095102200---0
10:00 5.8092102300---40
11:00 8.9079102300---40
12:00 11.8069102200---60
13:00 13.3060102108SO60
14:00 14.305810214ONO10ONO60
15:00 15.005910202O8O60
16:00 13.806510213SO8SO30
17:00 10.707910215SO11OSO0
18:00 11.207310219NO18ONO0
19:00 9.907610219NNO15N0
20:00 9.707810226NNO15NO0
21:00 7.608510222---10NNO0
22:00 8.308410222---8NO0
23:00 8.208610221ONO8NO0
minuit 6.4090102200---0

Graphique du 07-12-2019

 

Serveur OMMA